Meteo4 di Emilio Bellavite Il primo osservatorio Meteo di Verona  
 
mercoledì 15 agosto 2018
 
 
dati in tempo reale
Di seguito i dati in tempo reale delle stazioni on line, suddivise per regione, della rete di Meteo4. Cliccando sul link della stazione, ove presente, si accederà al sito web personale.
Stazioni online
Regione ABRUZZO
Località Giorno Ora Temp. Umid. Relat. Dew Point Press. Atm. Velocità Vento Direz. Vento Precip. Temp.
Min
Temp.
Max
San Salvo3 (CH) 15/08/18 00.49 19.0 °C 88 % 17.0 °C 1009.6 hPa 1.6 Km/h S 0.0 mm  19.0 °C 19.8 °C
Vasto (CH) 14/08/18 21.47 19.8 °C 10 % -12.7 °C 1009.6 hPa 4.7 Km/h S 13.2 mm  19.7 °C 32.0 °C
 
 
Regione BASILICATA
Località Giorno Ora Temp. Umid. Relat. Dew Point Press. Atm. Velocità Vento Direz. Vento Precip. Temp.
Min
Temp.
Max
Miglionico (MT) 14/08/18 22.40 19.8 °C 82 % 16.6 °C 1008.1 hPa 8.0 Km/h WNW 0.0 mm  19.7 °C 33.5 °C
 
 
Regione CALABRIA
Località Giorno Ora Temp. Umid. Relat. Dew Point Press. Atm. Velocità Vento Direz. Vento Precip. Temp.
Min
Temp.
Max
Bisignano (CS) 15/08/18 00.48 24.6 °C 51 % 13.8 °C 1010.5 hPa 5.7 Km/h SW 0.0 mm  24.0 °C 24.7 °C
Savelli (KR) 15/08/18 00.48 21.7 °C 49 % 10.5 °C 1010.6 hPa 5.9 Km/h SE 0.0 mm  21.2 °C 21.8 °C
 
 
Regione CAMPANIA
Località Giorno Ora Temp. Umid. Relat. Dew Point Press. Atm. Velocità Vento Direz. Vento Precip. Temp.
Min
Temp.
Max
Torre Annunziata (NA) 15/08/18 00.45 23.7 °C 3 % -24.1 °C 1011.8 hPa 0.0 Km/h SSW 0.0 mm  23.6 °C 23.8 °C
 
 
Regione EMILIA ROMAGNA
Località Giorno Ora Temp. Umid. Relat. Dew Point Press. Atm. Velocità Vento Direz. Vento Precip. Temp.
Min
Temp.
Max
Bellaria Igea Marina (RN) 15/08/18 00.48 19.4 °C 90 % 17.7 °C 1013.0 hPa 9.7 Km/h WSW 0.0 mm  19.2 °C 19.4 °C
Bellaria Igea Marina2 (RN) 15/08/18 00.48 19.6 °C 92 % 18.2 °C 1012.4 hPa 9.7 Km/h WSW 0.0 mm  19.3 °C 19.6 °C
Bellaria Igea Marina3 (RN) 15/08/18 00.48 19.3 °C 78 % 15.4 °C 1011.4 hPa 12.6 Km/h WSW 0.0 mm  18.9 °C 19.3 °C
Carpi (MO) 15/08/18 00.48 19.2 °C 91 % 17.7 °C 1013.9 hPa 0.0 Km/h ENE 0.0 mm  19.2 °C 19.6 °C
Filo di Argenta (FE) 15/08/18 00.45 17.7 °C 95 % 16.9 °C 1014.2 hPa 3.9 Km/h WNW 0.0 mm  17.6 °C 17.7 °C
Masiera di Bagnacavallo (RA) 15/08/18 00.45 19.5 °C 93 % 18.3 °C 1010.2 hPa 0.0 Km/h --- 0.0 mm  19.5 °C 19.7 °C
Migliarino (FE) 15/08/18 00.48 20.5 °C 93 % 19.3 °C 1012.2 hPa 8.7 Km/h N 0.6 mm  20.3 °C 20.5 °C
Ponte San Pellegrino (MO) 15/08/18 00.46 18.6 °C 98 % 18.3 °C 1017.8 hPa 0.0 Km/h NE 0.3 mm  18.5 °C 18.6 °C
Rimini (RN) 15/08/18 00.40 21.2 °C 77 % 17.0 °C 1013.2 hPa 4.8 Km/h WSW 0.0 mm  20.9 °C 21.2 °C
Rimini Zona Palas (RN) 15/08/18 00.30 20.4 °C 85 % 17.8 °C 1013.4 hPa 4.8 Km/h W 0.0 mm  20.2 °C 20.4 °C
Stiore - Monteveglio (BO) 15/08/18 00.48 18.5 °C 95 % 17.7 °C 1011.3 hPa 0.0 Km/h SE 1.0 mm  18.5 °C 18.7 °C
 
 
Regione FRIULI V.G.
Località Giorno Ora Temp. Umid. Relat. Dew Point Press. Atm. Velocità Vento Direz. Vento Precip. Temp.
Min
Temp.
Max
Budoia (PN) 15/08/18 00.45 17.9 °C 89 % 16.1 °C 1014.1 hPa 6.4 Km/h NW 7.4 mm  17.8 °C 17.9 °C
Campoformido (UD) 15/08/18 00.48 18.5 °C 73 % 13.5 °C 1014.5 hPa 0.0 Km/h NE 0.0 mm  18.5 °C 18.7 °C
Codroipo (UD) 15/08/18 00.48 19.2 °C 97 % 18.7 °C 1014.0 hPa 2.4 Km/h E 0.0 mm  19.1 °C 19.2 °C
Fogliano Redipuglia (GO) 15/08/18 00.49 19.4 °C 95 % 18.6 °C 1014.2 hPa 0.0 Km/h NE 18.0 mm  19.3 °C 30.1 °C
Fontanafredda (PN) 15/08/18 00.48 18.7 °C 99 % 18.5 °C 1013.6 hPa 0.0 Km/h NNE 0.0 mm  18.4 °C 18.7 °C
Gradisca d'Isonzo (GO) 15/08/18 00.49 19.6 °C 93 % 18.4 °C 1014.4 hPa 0.0 Km/h ENE 0.0 mm  19.6 °C 19.6 °C
Ovaro loc. Liariis (UD) 15/08/18 00.35 14.9 °C 95 % 14.2 °C 1015.3 hPa 0.0 Km/h --- 0.0 mm  14.9 °C 15.6 °C
Pordenone (PN) 15/08/18 00.40 20.1 °C 91 % 18.6 °C 1013.2 hPa 0.0 Km/h --- 0.0 mm  20.1 °C 20.1 °C
Sacile (PN) 15/08/18 00.35 20.1 °C 83 % 17.1 °C 1014.4 hPa 1.6 Km/h W 0.0 mm  19.4 °C 20.1 °C
Sacile2 (PN) 15/08/18 00.35 19.2 °C 92 % 17.8 °C 1014.5 hPa 0.0 Km/h N 0.0 mm  19.2 °C 19.3 °C
Staranzano (GO) 15/08/18 00.30 20.1 °C 92 % 18.7 °C 1014.8 hPa 0.0 Km/h N 0.3 mm  20.0 °C 20.1 °C
 
 
Regione LAZIO
Località Giorno Ora Temp. Umid. Relat. Dew Point Press. Atm. Velocità Vento Direz. Vento Precip. Temp.
Min
Temp.
Max
Acquapendente (VT) 15/08/18 00.48 18.4 °C 91 % 16.9 °C 1013.9 hPa 0.0 Km/h N 0.0 mm  18.4 °C 18.7 °C
Ardea (RM) 15/08/18 00.48 21.4 °C 93 % 20.2 °C 1012.6 hPa 2.0 Km/h SE 0.9 mm  21.4 °C 21.7 °C
Capodimonte (VT) 15/08/18 00.45 21.3 °C 86 % 18.8 °C 1013.0 hPa 0.0 Km/h N 0.0 mm  20.4 °C 21.3 °C
Caprarola Centro Storico (VT) 15/08/18 00.48 17.1 °C 94 % 16.1 °C 1015.0 hPa 0.0 Km/h SSW 1.9 mm  17.0 °C 17.4 °C
Civita Castellana (VT) 15/08/18 00.49 18.8 °C 89 % 16.9 °C 1013.8 hPa 5.4 Km/h N 3.2 mm  18.8 °C 19.1 °C
Marta (VT) 15/08/18 00.45 20.4 °C 88 % 18.3 °C 1011.6 hPa 0.0 Km/h SSW 0.0 mm  20.1 °C 20.5 °C
Monte Rufeno (VT) 15/08/18 00.49 0.0 °C 0 % 15.1 °C 0.0 hPa 0.0 Km/h --- 0.0 mm  0.0 °C 0.0 °C
Pomezia (RM) 15/08/18 00.49 20.6 °C 91 % 19.1 °C 1011.1 hPa 11.3 Km/h E 0.8 mm  20.6 °C 20.7 °C
Ronciglione Centro (VT) 15/08/18 00.45 18.0 °C 93 % 16.9 °C 1017.0 hPa 0.0 Km/h NNE 1.7 mm  17.9 °C 18.0 °C
Ronciglione - Ponte Cuzzoli (VT) 15/08/18 00.45 17.6 °C 92 % 16.2 °C 1013.2 hPa 0.0 Km/h WNW 2.0 mm  17.6 °C 17.8 °C
S. Lorenzo Nuovo (VT) 15/08/18 00.49 18.9 °C 82 % 15.8 °C 1011.8 hPa 5.8 Km/h NE 0.0 mm  18.9 °C 19.4 °C
Tuscania (VT) 14/08/18 16.15 25.8 °C 63 % 18.3 °C 1011.9 hPa 2.6 Km/h ENE 468.8 mm  18.9 °C 25.8 °C
Valentano (VT) 15/08/18 00.49 19.5 °C 83 % 16.7 °C 1011.1 hPa 8.0 Km/h NE 0.0 mm  19.0 °C 19.6 °C
Viterbo Santa Barbara (VT) 14/08/18 22.50 19.9 °C 87 % 17.7 °C 1010.9 hPa 0.0 Km/h S 29.0 mm  17.6 °C 24.2 °C
Viterbo Strada Bagni (VT) 15/08/18 00.49 0.0 °C 0 % 0.0 °C 1012.7 hPa 0.0 Km/h N 0.2 mm  19.5 °C 19.6 °C
Vitorchiano Pallone (VT) 14/08/18 18.50 21.1 °C 85 % 18.4 °C 1010.0 hPa 4.8 Km/h N 19.5 mm  17.4 °C 23.6 °C
 
 
Regione LIGURIA
Località Giorno Ora Temp. Umid. Relat. Dew Point Press. Atm. Velocità Vento Direz. Vento Precip. Temp.
Min
Temp.
Max
Arenzano (GE) 15/08/18 00.48 23.4 °C 81 % 20.0 °C 1013.0 hPa 6.4 Km/h E 0.0 mm  22.6 °C 23.4 °C
Cosseria Lidora (SV) 15/08/18 00.45 18.7 °C 91 % 17.2 °C 1012.9 hPa 8.0 Km/h WNW 0.0 mm  18.6 °C 19.2 °C
Genova Albaro (GE) 15/08/18 00.48 21.1 °C 93 % 19.9 °C 1023.0 hPa 1.9 Km/h N 0.0 mm  21.1 °C 21.3 °C
Genova Erzelli (GE) 15/08/18 00.43 22.3 °C 81 % 18.9 °C 1011.8 hPa 9.7 Km/h N 0.0 mm  22.1 °C 22.7 °C
Loano (SV) 15/08/18 00.45 23.8 °C 73 % 18.7 °C 1012.2 hPa 0.0 Km/h N 0.0 mm  0.0 °C 24.2 °C
Moneglia loc. Casale (GE) 15/08/18 00.49 22.1 °C 69 % 16.1 °C 1014.0 hPa 1.6 Km/h WSW 0.0 mm  21.7 °C 22.8 °C
Moneglia loc. La Secca (GE) 15/08/18 00.49 23.8 °C 68 % 17.5 °C 1012.3 hPa 0.0 Km/h WNW 0.0 mm  22.9 °C 24.2 °C
Ortonovo (SP) 15/08/18 00.48 21.8 °C 62 % 14.2 °C 1015.0 hPa 7.5 Km/h NE 0.0 mm  21.8 °C 21.8 °C
Varese Ligure (SP) 15/08/18 00.48 18.8 °C 25 % -1.6 °C 1010.1 hPa 3.0 Km/h SO 0.0 mm  18.4 °C 19.3 °C
 
 
Regione LOMBARDIA
Località Giorno Ora Temp. Umid. Relat. Dew Point Press. Atm. Velocità Vento Direz. Vento Precip. Temp.
Min
Temp.
Max
Bernate Ticino fraz. Casate (MI) 15/08/18 00.48 20.3 °C 84 % 17.5 °C 1012.2 hPa 0.0 Km/h ENE 0.0 mm  20.2 °C 20.9 °C
Calcinato (BS) 15/08/18 00.48 20.1 °C 84 % 17.3 °C 1016.6 hPa 4.8 Km/h ESE 0.0 mm  20.1 °C 20.6 °C
Cassano Magnago (VA) 15/08/18 00.39 20.7 °C 87 % 18.5 °C 1013.1 hPa 0.0 Km/h S 0.0 mm  20.7 °C 20.9 °C
Costa Volpino (BG) 15/08/18 00.42 18.2 °C 80 % 14.7 °C 1011.3 hPa 0.9 Km/h NNW 0.0 mm  18.2 °C 18.8 °C
Dorno (PV) 15/08/18 00.48 21.3 °C 88 % 19.2 °C 1013.5 hPa 0.2 Km/h E 0.0 mm  21.3 °C 21.6 °C
Gaggiano (MI) 15/08/18 00.48 21.8 °C 83 % 18.8 °C 1013.9 hPa 5.4 Km/h ESE 0.0 mm  21.8 °C 22.3 °C
Laxolo (BG) 15/08/18 00.46 17.4 °C 99 % 17.2 °C 1015.6 hPa 0.5 Km/h NW 0.7 mm  16.2 °C 24.9 °C
Lesmo (MB) 15/08/18 00.45 20.1 °C 89 % 18.2 °C 1014.3 hPa 1.6 Km/h E 0.0 mm  18.9 °C 20.1 °C
Lovere (BG) 15/08/18 00.39 20.0 °C 61 % 0.0 °C 1015.0 hPa 4.3 Km/h SW 0.0 mm  20.0 °C 20.6 °C
Malnate San Salvatore (VA) 15/08/18 00.45 18.1 °C 94 % 17.1 °C 1014.7 hPa 1.6 Km/h NW 0.0 mm  18.1 °C 18.3 °C
Mezzana Bigli (PV) 15/08/18 00.45 20.9 °C 88 % 18.8 °C 1012.5 hPa 0.0 Km/h N 0.0 mm  20.9 °C 21.6 °C
Morbegno (SO) 15/08/18 00.49 20.0 °C 78 % 16.0 °C 1014.2 hPa 6.5 Km/h SSE 0.0 mm  19.9 °C 20.4 °C
Rivalta sul Mincio (MN) 15/08/18 00.42 19.1 °C 91 % 17.6 °C 1014.4 hPa 4.1 Km/h ESE 0.0 mm  19.1 °C 19.4 °C
 
 
Regione MARCHE
Località Giorno Ora Temp. Umid. Relat. Dew Point Press. Atm. Velocità Vento Direz. Vento Precip. Temp.
Min
Temp.
Max
Ancona (AN) 14/08/18 23.55 22.5 °C 82 % 19.3 °C 1013.5 hPa 6.4 Km/h NW 0.6 mm  21.8 °C 29.4 °C
Ancona loc. Brecce Bianche (AN) 15/08/18 00.38 21.9 °C 74 % 17.1 °C 1019.9 hPa 6.9 Km/h WNW 0.0 mm  21.9 °C 22.3 °C
Barbara (AN) 15/08/18 00.48 20.2 °C 74 % 15.4 °C 1015.9 hPa 12.2 Km/h WSW 0.0 mm  19.8 °C 20.2 °C
Ca' Gallo (PU) 15/08/18 00.39 20.8 °C 74 % 16.0 °C 1010.4 hPa 1.4 Km/h SE 0.0 mm  20.7 °C 20.8 °C
Marina di Montemarciano (AN) 15/08/18 00.45 21.3 °C 81 % 17.9 °C 1012.7 hPa 3.2 Km/h SSW 0.0 mm  21.3 °C 21.8 °C
Montelabbate (PU) 15/08/18 00.39 21.6 °C 73 % 16.5 °C 1008.4 hPa 4.2 Km/h SSW 0.0 mm  21.4 °C 21.6 °C
San Benedetto del Tronto (AP) 15/08/18 00.30 22.5 °C 77 % 18.3 °C 1012.5 hPa 1.9 Km/h WNW 0.0 mm  22.3 °C 22.5 °C
 
 
Regione MOSELLE
Località Giorno Ora Temp. Umid. Relat. Dew Point Press. Atm. Velocità Vento Direz. Vento Precip. Temp.
Min
Temp.
Max
Seremange Erzange (Moselle) 15/08/18 00.48 17.5 °C 89 % 15.7 °C 1019.9 hPa 0.0 Km/h W 0.0 mm  0.0 °C 0.0 °C
 
 
Regione PIEMONTE
Località Giorno Ora Temp. Umid. Relat. Dew Point Press. Atm. Velocità Vento Direz. Vento Precip. Temp.
Min
Temp.
Max
Castelferro (AL) 15/08/18 00.48 20.5 °C 90 % 18.8 °C 1013.7 hPa 0.0 Km/h SE 0.0 mm  20.4 °C 20.6 °C
Magnano (BI) 15/08/18 00.49 17.9 °C 97 % 17.4 °C 1009.8 hPa 0.0 Km/h SW 0.0 mm  17.9 °C 18.5 °C
Monasterolo Torinese (TO) 15/08/18 00.40 19.9 °C 76 % 15.6 °C 1010.4 hPa 0.0 Km/h --- 0.0 mm  19.5 °C 20.2 °C
Mongrando San Michele (BI) 15/08/18 00.40 17.6 °C 84 % 14.8 °C 1013.4 hPa 0.0 Km/h WNW 0.0 mm  17.5 °C 18.1 °C
Muzzano (BI) 15/08/18 00.40 20.7 °C 68 % 14.5 °C 1012.3 hPa 4.8 Km/h NW 0.0 mm  20.6 °C 20.7 °C
Nichelino (TO) 15/08/18 00.40 24.2 °C 74 % 19.2 °C 1015.3 hPa 1.6 Km/h ENE 0.0 mm  24.1 °C 24.3 °C
Novara (NO) 15/08/18 00.40 20.6 °C 83 % 17.6 °C 1013.3 hPa 0.0 Km/h --- 0.0 mm  20.6 °C 21.3 °C
Parella (TO) 15/08/18 00.39 20.7 °C 77 % 16.6 °C 1011.4 hPa 0.0 Km/h W 0.0 mm  20.3 °C 20.8 °C
Pecetto Torinese (TO) 15/08/18 00.39 22.1 °C 71 % 16.6 °C 1013.1 hPa 0.0 Km/h NNW 0.0 mm  22.1 °C 22.4 °C
Pila Valsesia (VC) 15/08/18 00.40 15.5 °C 93 % 14.4 °C 1012.9 hPa 0.0 Km/h WNW 0.0 mm  15.5 °C 15.8 °C
Piovà Massaia (AT) 15/08/18 00.48 21.4 °C 81 % 18.0 °C 1012.1 hPa 0.0 Km/h NE 0.0 mm  21.4 °C 22.1 °C
Pozzolo Formigaro (AL) 15/08/18 00.46 19.7 °C 88 % 17.7 °C 1014.4 hPa 0.0 Km/h SE 0.0 mm  19.7 °C 20.2 °C
Pray (BI) 15/08/18 00.49 16.1 °C 94 % 15.1 °C 1014.1 hPa 2.0 Km/h NW 0.0 mm  16.1 °C 16.5 °C
Soriso (NO) 08/08/18 01.40 21.4 °C 88 % 19.4 °C 1013.4 hPa 3.2 Km/h W 2.3 mm  21.4 °C 23.8 °C
Torino Regio Parco (TO) 15/08/18 00.51 23.0 °C 79 % 19.2 °C 1015.0 hPa 2.2 Km/h NE 0.0 mm  22.9 °C 23.4 °C
Valenza (AL) 15/08/18 00.40 22.4 °C 82 % 19.2 °C 1012.4 hPa 1.6 Km/h ENE 0.0 mm  22.4 °C 22.9 °C
Viozene Toria (CN) 15/08/18 00.50 16.0 °C 59 % 8.0 °C 1023.6 hPa 4.0 Km/h SW 0.0 mm  14.8 °C 16.0 °C
 
 
Regione PUGLIA
Località Giorno Ora Temp. Umid. Relat. Dew Point Press. Atm. Velocità Vento Direz. Vento Precip. Temp.
Min
Temp.
Max
Acquaviva delle Fonti (BA) 15/08/18 00.48 20.7 °C 88 % 18.7 °C 1012.5 hPa 3.0 Km/h SW 0.0 mm  20.3 °C 20.9 °C
S. Giovanni Rotondo (FG) 15/08/18 00.40 20.6 °C 76 % 16.2 °C 1011.1 hPa 0.0 Km/h NNE 0.0 mm  20.6 °C 21.2 °C
Vieste (FG) 15/08/18 00.50 24.3 °C 69 % 18.2 °C 1013.7 hPa 5.6 Km/h SW 0.0 mm  23.8 °C 24.4 °C
 
 
Regione SARDEGNA
Località Giorno Ora Temp. Umid. Relat. Dew Point Press. Atm. Velocità Vento Direz. Vento Precip. Temp.
Min
Temp.
Max
Bitti (NU) 15/08/18 00.48 19.4 °C 80 % 15.9 °C 1015.5 hPa 0.0 Km/h --- 0.0 mm  19.3 °C 19.5 °C
Bonorva (SS) 15/08/18 00.40 19.7 °C 83 % 16.8 °C 1013.0 hPa 3.2 Km/h NW 0.0 mm  19.7 °C 20.2 °C
Borore (NU) 15/08/18 00.49 20.7 °C 82 % 17.5 °C 1012.4 hPa 4.5 Km/h W 0.0 mm  20.7 °C 20.9 °C
Iglesias (CI) 15/08/18 00.39 22.4 °C 83 % 19.4 °C 1015.8 hPa 0.0 Km/h WNW 0.0 mm  22.4 °C 22.5 °C
Oristano (OR) 15/08/18 00.48 22.8 °C 82 % 19.5 °C 1012.8 hPa 4.8 Km/h NNW 0.0 mm  22.8 °C 23.2 °C
Orosei (NU) 15/08/18 00.45 22.2 °C 84 % 19.4 °C 1012.6 hPa 3.2 Km/h W 0.0 mm  22.1 °C 22.3 °C
San Vito (CA) 15/08/18 00.49 23.4 °C 66 % 16.7 °C 1005.2 hPa 0.0 Km/h SE 0.0 mm  23.4 °C 29.8 °C
Sinnai (CA) 14/08/18 23.40 22.7 °C 80 % 19.1 °C 1013.1 hPa 4.8 Km/h NNW 0.0 mm  22.1 °C 33.7 °C
 
 
Regione SICILIA
Località Giorno Ora Temp. Umid. Relat. Dew Point Press. Atm. Velocità Vento Direz. Vento Precip. Temp.
Min
Temp.
Max
Barcellona P.G. Centro (ME) 15/08/18 00.48 24.9 °C 67 % 18.3 °C 1011.8 hPa 3.2 Km/h S 0.0 mm  24.9 °C 25.4 °C
Barcellona Pozzo di Gotto (ME) 15/08/18 00.48 25.2 °C 70 % 19.3 °C 1010.8 hPa 0.0 Km/h N 0.0 mm  25.1 °C 25.6 °C
Brolo c/da Parrazzà (ME) 15/08/18 00.45 24.4 °C 62 % 16.7 °C 1012.3 hPa 10.0 Km/h S 0.0 mm  23.9 °C 24.4 °C
Cammarata (AG) 15/08/18 00.48 20.9 °C 55 % 11.5 °C 1011.7 hPa 4.3 Km/h NNE 0.0 mm  20.3 °C 21.1 °C
Cefalù (PA) 15/08/18 00.48 26.2 °C 62 % 18.3 °C 1009.6 hPa 4.6 Km/h S 0.0 mm  25.8 °C 26.2 °C
Mirabella Imbaccari (CT) 15/08/18 00.45 22.7 °C 66 % 16.0 °C 1011.1 hPa 0.0 Km/h SW 0.0 mm  22.2 °C 22.7 °C
Piraino contr. Fiumara (ME) 15/08/18 00.40 20.6 °C 87 % 18.3 °C 1012.8 hPa 5.0 Km/h ENE 0.0 mm  20.6 °C 20.7 °C
San Cataldo (CL) 11/08/18 18.23 28.8 °C 50 % 17.3 °C 1017.8 hPa 0.0 Km/h NNW 0.0 mm  21.0 °C 32.5 °C
San Giovanni la Punta Trappeto (CT) 15/08/18 00.45 23.0 °C 74 % 18.1 °C 1012.7 hPa 6.4 Km/h N 0.0 mm  23.0 °C 23.2 °C
 
 
Regione TOSCANA
Località Giorno Ora Temp. Umid. Relat. Dew Point Press. Atm. Velocità Vento Direz. Vento Precip. Temp.
Min
Temp.
Max
Bientina (PI) 15/08/18 00.49 20.8 °C 73 % 15.8 °C 1012.1 hPa 0.0 Km/h NE 0.0 mm  20.8 °C 21.4 °C
Carmignano loc. Seano (PO) 14/08/18 22.13 20.7 °C 80 % 17.1 °C 1011.9 hPa 0.0 Km/h SSW 3.0 mm  19.7 °C 28.1 °C
Castelnuovo V.C. (PI) 15/08/18 00.42 17.7 °C 98 % 17.4 °C 1012.2 hPa 0.0 Km/h SW 0.0 mm  17.7 °C 17.8 °C
Isola d'Elba Marina di Campo (LI) 15/08/18 00.30 21.7 °C 90 % 20.0 °C 567.0 hPa 0.0 Km/h NW 0.0 mm  21.2 °C 21.8 °C
Montespertoli (FI) 15/08/18 00.39 20.2 °C 81 % 16.8 °C 1015.7 hPa 0.0 Km/h N 0.0 mm  20.2 °C 20.5 °C
Montopoli in val d'Arno Loc. Capanne (PI) 15/08/18 00.35 20.9 °C 81 % 17.7 °C 1013.1 hPa 1.6 Km/h SE 0.0 mm  20.9 °C 21.5 °C
Pisa zona I Passi (PI) 15/08/18 00.49 21.9 °C 61 % 14.0 °C 1013.3 hPa 0.0 Km/h NE 0.0 mm  21.9 °C 22.3 °C
Torri (FI) 15/08/18 00.30 18.4 °C 87 % 16.2 °C 1012.8 hPa 1.6 Km/h WNW 0.0 mm  18.2 °C 18.4 °C
Torrita di Siena (SI) 15/08/18 00.40 18.8 °C 94 % 17.8 °C 1013.8 hPa 0.0 Km/h --- 0.0 mm  18.8 °C 18.9 °C
 
 
Regione TRENTINO A. A.
Località Giorno Ora Temp. Umid. Relat. Dew Point Press. Atm. Velocità Vento Direz. Vento Precip. Temp.
Min
Temp.
Max
Ala (TN) 15/08/18 00.48 18.2 °C 89 % 16.4 °C 1014.4 hPa 1.5 Km/h SE 0.0 mm  18.2 °C 18.5 °C
Avio (TN) 15/08/18 00.48 19.7 °C 91 % 18.2 °C 1014.7 hPa 0.0 Km/h SE 0.0 mm  19.7 °C 19.8 °C
Besenello (TN) 15/08/18 00.48 18.7 °C 85 % 16.1 °C 1015.6 hPa 0.6 Km/h WNW 0.0 mm  18.7 °C 18.9 °C
Bolognano di Arco (TN) 15/08/18 00.48 19.9 °C 86 % 17.5 °C 1014.3 hPa 0.0 Km/h SSW 0.0 mm  19.9 °C 20.4 °C
Borgo Valsugana (TN) 15/08/18 00.39 17.2 °C 93 % 16.1 °C 1014.8 hPa 0.0 Km/h NNE 0.0 mm  17.2 °C 17.4 °C
Calliano (TN) 15/08/18 00.48 17.8 °C 92 % 16.5 °C 1014.3 hPa 6.4 Km/h ENE 0.0 mm  17.7 °C 17.9 °C
Fiavè loc. Ballino (TN) 15/08/18 00.48 15.8 °C 92 % 14.5 °C 1014.1 hPa 0.0 Km/h NNW 0.0 mm  15.8 °C 16.3 °C
Gardolo (TN) 15/08/18 00.48 17.0 °C 93 % 15.9 °C 1015.4 hPa 0.0 Km/h NNE 0.0 mm  0.0 °C 0.0 °C
Isera loc. Reviano (TN) 15/08/18 00.49 18.3 °C 87 % 16.1 °C 1014.5 hPa 3.2 Km/h NW 0.0 mm  18.2 °C 18.8 °C
Lavis (TN) 14/08/18 23.45 18.1 °C 87 % 16.1 °C 1015.7 hPa 3.2 Km/h NE 1.2 mm  17.7 °C 28.4 °C
Margone (TN) 15/08/18 00.45 16.2 °C 81 % 13.0 °C 1016.9 hPa 6.5 Km/h NNW 0.0 mm  16.2 °C 16.3 °C
Massone di Arco (TN) 15/08/18 00.49 20.7 °C 81 % 17.3 °C 1014.2 hPa 0.0 Km/h SSO 0.0 mm  20.7 °C 21.3 °C
Miola di Piné (TN) 15/08/18 00.48 12.2 °C 95 % 11.4 °C 1015.5 hPa 5.9 Km/h E 0.0 mm  12.2 °C 12.5 °C
Padergnone (TN) 15/08/18 00.45 20.3 °C 79 % 16.6 °C 1014.5 hPa 7.8 Km/h N 0.0 mm  20.2 °C 20.3 °C
Taio Mollaro (TN) 15/08/18 00.48 16.7 °C 90 % 15.1 °C 1018.0 hPa 0.0 Km/h E 1.0 mm  16.2 °C 26.5 °C
Trento (TN) 15/08/18 00.49 19.6 °C 82 % 16.4 °C 1014.2 hPa 4.8 Km/h ENE 0.0 mm  19.6 °C 19.8 °C
Vattaro fraz. Pian dei Pradi (TN) 15/08/18 00.49 14.5 °C 95 % 13.7 °C 1015.3 hPa 0.0 Km/h SW 0.0 mm  14.5 °C 14.9 °C
 
 
Regione UMBRIA
Località Giorno Ora Temp. Umid. Relat. Dew Point Press. Atm. Velocità Vento Direz. Vento Precip. Temp.
Min
Temp.
Max
Castiglione del Lago (PG) 15/08/18 00.40 19.9 °C 92 % 18.6 °C 1014.7 hPa 0.0 Km/h --- 0.0 mm  19.9 °C 20.4 °C
Foligno (PG) 15/08/18 00.30 19.9 °C 81 % 16.6 °C 1012.9 hPa 3.2 Km/h E 0.0 mm  19.9 °C 20.1 °C
Orvieto (TR) 15/08/18 00.46 18.9 °C 87 % 16.7 °C 1012.3 hPa 0.0 Km/h SSE 0.0 mm  18.9 °C 19.1 °C
Perugia San Mariano (PG) 15/08/18 00.35 20.3 °C 79 % 16.6 °C 1014.0 hPa 0.0 Km/h N 0.0 mm  20.3 °C 20.4 °C
 
 
Regione VALLE DAOSTA
Località Giorno Ora Temp. Umid. Relat. Dew Point Press. Atm. Velocità Vento Direz. Vento Precip. Temp.
Min
Temp.
Max
 
 
Regione VENETO
Località Giorno Ora Temp. Umid. Relat. Dew Point Press. Atm. Velocità Vento Direz. Vento Precip. Temp.
Min
Temp.
Max
Abano (PD) 15/08/18 00.45 19.5 °C 95 % 18.7 °C 1012.6 hPa 1.6 Km/h NW 0.0 mm  19.4 °C 19.6 °C
Alleghe (BL) 15/08/18 00.48 12.9 °C 86 % 10.6 °C 1005.8 hPa 0.7 Km/h ENE 0.0 mm  12.8 °C 13.1 °C
Alleghe Lago (BL) 15/08/18 00.48 13.1 °C 91 % 11.7 °C 1018.7 hPa 11.1 Km/h ESE 0.0 mm  13.1 °C 13.9 °C
Arquà Polesine (RO) 15/08/18 00.48 19.6 °C 89 % 17.7 °C 1015.5 hPa 1.6 Km/h WNW 0.0 mm  19.5 °C 19.6 °C
Arzignano loc. Castello (VI) 14/08/18 23.00 19.5 °C 91 % 18.0 °C 1012.8 hPa 0.0 Km/h NNW 2.2 mm  18.2 °C 24.1 °C
Arzignano Pugnello (VI) 15/08/18 00.48 19.2 °C 83 % 16.1 °C 1012.4 hPa 0.0 Km/h NE 0.0 mm  18.6 °C 19.2 °C
Arzignano San Bortolo (VI) 15/08/18 00.39 20.8 °C 77 % 16.6 °C 1011.9 hPa 3.2 Km/h N 0.0 mm  20.3 °C 20.9 °C
Arzignano Tezze (VI) 08/08/18 07.37 23.8 °C 88 % 21.7 °C 1013.1 hPa 0.0 Km/h NNW 0.0 mm  21.6 °C 24.1 °C
Badia Calavena loc. San Valentino (VR) 15/08/18 00.48 17.2 °C 76 % 12.9 °C 1011.7 hPa 9.7 Km/h NNE 0.0 mm  16.5 °C 17.2 °C
Bardolino (VR) 15/08/18 00.48 20.3 °C 87 % 18.3 °C 1007.5 hPa 10.0 Km/h NE 0.0 mm  20.0 °C 20.4 °C
Beccacivetta (VR) 12/08/18 19.59 27.9 °C 58 % 18.9 °C 1013.4 hPa 0.0 Km/h SW 0.0 mm  22.7 °C 31.8 °C
Belluno Castion (BL) 15/08/18 00.30 16.8 °C 94 % 15.9 °C 1013.8 hPa 0.0 Km/h --- 0.0 mm  16.7 °C 16.9 °C
Brendola (VI) 15/08/18 00.47 20.5 °C 99 % 20.3 °C 999.9 hPa 0.0 Km/h NE 0.0 mm  19.8 °C 20.5 °C
Carceri (PD) 15/08/18 00.29 19.0 °C 95 % 18.3 °C 1013.1 hPa 3.2 Km/h N 0.0 mm  19.0 °C 19.1 °C
Cartigliano (VI) 15/08/18 00.46 20.1 °C 83 % 17.1 °C 1012.9 hPa 0.0 Km/h NNW 0.0 mm  20.1 °C 20.6 °C
Castel d'Azzano (VR) 15/08/18 00.35 19.9 °C 89 % 18.0 °C 891.0 hPa 0.0 Km/h --- 0.0 mm  19.9 °C 20.2 °C
Castelfranco Veneto (TV) 15/08/18 00.40 20.4 °C 90 % 18.7 °C 1013.7 hPa 0.0 Km/h --- 0.0 mm  20.2 °C 20.4 °C
Castelgomberto (VI) 15/08/18 00.49 20.2 °C 82 % 17.0 °C 1013.4 hPa 3.3 Km/h NE 0.0 mm  20.1 °C 20.3 °C
Cerea (VR) 15/08/18 00.20 19.0 °C 95 % 18.2 °C 1014.1 hPa 1.6 Km/h NE 0.0 mm  18.9 °C 19.0 °C
Cerea2 (VR) 15/08/18 00.30 19.1 °C 92 % 17.8 °C 1015.7 hPa 3.4 Km/h NNE 0.0 mm  18.9 °C 19.1 °C
Cima Grappa (TV) 15/08/18 00.48 11.4 °C 78 % 7.7 °C 1016.3 hPa 5.4 Km/h ENE 0.0 mm  10.9 °C 11.4 °C
Cismon del Grappa loc. Corlo (VI) 15/08/18 00.48 17.5 °C 94 % 16.5 °C 1017.0 hPa 0.0 Km/h SE 0.0 mm  17.4 °C 17.8 °C
Cogollo del Cengio (VI) 15/08/18 00.48 18.0 °C 99 % 17.8 °C 1014.2 hPa 11.2 Km/h NW 0.0 mm  17.9 °C 18.1 °C
Cologna Veneta Sant'Andrea (VR) 15/08/18 00.40 19.8 °C 76 % 15.5 °C 1014.0 hPa 1.6 Km/h NNW 0.0 mm  19.6 °C 19.8 °C
Colognola ai Colli (VR) 15/08/18 00.40 21.1 °C 78 % 17.1 °C 1014.3 hPa 1.6 Km/h N 0.0 mm  20.4 °C 21.1 °C
Contrada Dosso Gervasio (VR) 15/08/18 00.45 17.0 °C 78 % 12.8 °C 1013.5 hPa 5.0 Km/h NNE 0.0 mm  16.7 °C 17.1 °C
Corrubio di S. Anna d'Alfaedo (VR) 15/08/18 00.45 16.5 °C 85 % 14.0 °C 1015.4 hPa 0.0 Km/h W 0.0 mm  16.5 °C 17.1 °C
Costa di Vittorio Veneto (TV) 15/08/18 00.39 19.9 °C 86 % 17.5 °C 1012.8 hPa 0.0 Km/h SW 0.0 mm  19.7 °C 20.1 °C
Crespano del Grappa2 (TV) 15/08/18 00.39 19.8 °C 81 % 16.4 °C 1011.2 hPa 0.0 Km/h NNE 0.0 mm  19.3 °C 19.8 °C
Dossobuono (VR) 15/08/18 00.49 19.7 °C 90 % 18.0 °C 1015.9 hPa 0.0 Km/h SW 0.0 mm  19.7 °C 20.3 °C
Erbezzo Passo Fittanze (VR) 15/08/18 00.40 12.9 °C 88 % 11.0 °C 1016.8 hPa 6.9 Km/h WNW 0.0 mm  12.4 °C 12.9 °C
Falzè di Piave (TV) 11/08/18 03.27 20.8 °C 87 % 18.6 °C 1018.1 hPa 0.0 Km/h --- 0.0 mm  20.8 °C 22.2 °C
Farra di Soligo (TV) 15/08/18 00.49 19.1 °C 76 % 14.8 °C 1013.2 hPa 0.0 Km/h N 0.0 mm  18.6 °C 19.1 °C
Feltre Celarda (BL) 15/08/18 00.49 17.9 °C 99 % 17.7 °C 1014.2 hPa 0.0 Km/h SW 0.0 mm  17.8 °C 17.9 °C
Ferrara di M.B. (VR) 15/08/18 00.45 15.2 °C 74 % 10.6 °C 1011.9 hPa 0.0 Km/h N 0.0 mm  13.9 °C 15.4 °C
Fumane Contrada La Ca (VR) 15/08/18 00.39 17.9 °C 92 % 16.6 °C 1018.5 hPa 1.6 Km/h W 0.0 mm  17.5 °C 17.9 °C
Gallio (VI) 15/08/18 00.35 13.0 °C 97 % 12.6 °C 1014.9 hPa 0.0 Km/h N 0.0 mm  13.0 °C 13.2 °C
Jesolo (VE) 08/08/18 15.00 30.6 °C 0 % 0.0 °C 1011.6 hPa 1.6 Km/h ESE 0.0 mm  -67.8 °C 31.0 °C
Legnago (VR) 15/08/18 00.45 19.1 °C 97 % 18.6 °C 1014.5 hPa 0.0 Km/h NE 0.0 mm  18.9 °C 19.1 °C
Lendinara2 (RO) 15/08/18 00.39 18.6 °C 92 % 17.3 °C 1014.4 hPa 0.0 Km/h N 0.0 mm  18.4 °C 18.6 °C
Lugagnano (VR) 15/08/18 00.48 20.6 °C 86 % 18.2 °C 1012.8 hPa 0.0 Km/h SE 0.0 mm  20.6 °C 20.8 °C
Lusiana Sciessere (VI) 15/08/18 00.39 17.0 °C 81 % 13.7 °C 1017.8 hPa 1.4 Km/h NNE 0.0 mm  16.5 °C 17.0 °C
Marano Vicentino2 (VI) 15/08/18 00.45 19.4 °C 88 % 17.4 °C 1013.8 hPa 0.0 Km/h SSW 0.0 mm  19.4 °C 19.4 °C
Marostica Valle San Floriano (VI) 14/08/18 13.49 25.2 °C 74 % 20.0 °C 1011.9 hPa 0.0 Km/h SE 0.2 mm  17.6 °C 25.7 °C
Merlara (PD) 15/08/18 00.40 18.2 °C 90 % 16.6 °C 1013.4 hPa 1.6 Km/h N 0.0 mm  18.2 °C 24.7 °C
Mizzole (VR) 15/08/18 00.48 21.3 °C 77 % 17.1 °C 1014.5 hPa 1.1 Km/h NW 0.0 mm  21.1 °C 21.9 °C
Molina (VR) 15/08/18 00.39 15.4 °C 96 % 14.8 °C 1018.1 hPa 2.4 Km/h N 0.0 mm  15.3 °C 15.4 °C
Monselice (PD) 15/08/18 00.47 22.8 °C 72 % 17.5 °C 1017.0 hPa 22.0 Km/h SE 0.0 mm  22.8 °C 22.8 °C
Montebello Vicentino loc. Selva (VI) 15/08/18 00.49 20.4 °C 68 % 14.3 °C 1014.9 hPa 9.8 Km/h NNE 0.0 mm  19.8 °C 20.6 °C
Montecchio Maggiore Sant'Urbano (VI) 15/08/18 00.36 19.8 °C 74 % 15.0 °C 1018.8 hPa 2.1 Km/h N 0.0 mm  19.0 °C 19.8 °C
Monteforte d'Alpone2 (VR) 15/08/18 00.45 20.9 °C 79 % 17.1 °C 1012.6 hPa 9.7 Km/h E 0.0 mm  20.2 °C 20.9 °C
Montorio (VR) 15/08/18 00.39 21.8 °C 74 % 17.0 °C 1016.1 hPa 3.2 Km/h WSW 0.0 mm  21.7 °C 21.9 °C
Montorso Vicentino (VI) 15/08/18 00.49 18.6 °C 88 % 16.5 °C 1013.9 hPa 0.0 Km/h ENE 0.0 mm  18.0 °C 18.6 °C
Onara extraurbana (PD) 09/08/18 14.48 33.2 °C 60 % 24.4 °C 1015.1 hPa 0.4 Km/h W 0.0 mm  20.5 °C 33.2 °C
Oppeano (VR) 12/08/18 23.00 25.1 °C 69 % 19.0 °C 1011.6 hPa 0.0 Km/h --- 0.0 mm  23.1 °C 33.1 °C
Pastrengo (VR) 15/08/18 00.39 20.1 °C 85 % 17.5 °C 1017.5 hPa 0.0 Km/h E 0.0 mm  20.1 °C 20.4 °C
Pedemonte (VR) 15/08/18 00.40 20.5 °C 82 % 17.3 °C 1013.8 hPa 3.0 Km/h WNW 0.0 mm  20.5 °C 20.7 °C
Perarolo di Arcugnano (VI) 15/08/18 00.49 19.9 °C 81 % 16.6 °C 985.1 hPa 0.0 Km/h NE 0.0 mm  19.8 °C 19.9 °C
Pescantina Are (VR) 14/08/18 18.53 24.6 °C 77 % 20.3 °C 1010.7 hPa 0.0 Km/h WSW 1.3 mm  19.9 °C 25.2 °C
Peschiera del Garda (VR) 15/08/18 00.40 19.8 °C 88 % 17.8 °C 1014.7 hPa 3.2 Km/h SE 0.0 mm  19.8 °C 20.2 °C
Pian di Castagné (VR) 15/08/18 00.35 20.3 °C 72 % 15.1 °C 1013.8 hPa 19.3 Km/h NE 0.5 mm  19.6 °C 20.3 °C
Pian di Castagné2 (VR) 15/08/18 00.39 19.2 °C 75 % 14.7 °C 1016.1 hPa 10.8 Km/h NNE 2.3 mm  18.5 °C 19.2 °C
Pojana Maggiore Cagnano (VI) 15/08/18 00.40 19.6 °C 92 % 18.3 °C 1012.0 hPa 0.0 Km/h NW 0.0 mm  19.6 °C 19.7 °C
Ponte San Nicolò (PD) 15/08/18 00.39 20.0 °C 91 % 18.5 °C 1013.7 hPa 0.0 Km/h N 0.0 mm  20.0 °C 20.1 °C
Rifugio Bocca di Selva (VR) 15/08/18 00.49 12.9 °C 82 % 9.9 °C 1014.6 hPa 20.9 Km/h NNE 0.0 mm  12.8 °C 13.2 °C
Rifugio Primaneve (VR) 15/08/18 00.38 11.1 °C 90 % 9.5 °C 1014.9 hPa 9.7 Km/h N 0.0 mm  10.8 °C 11.2 °C
Romano d'Ezzelino Fellette (VI) 15/08/18 00.48 19.3 °C 59 % 11.1 °C 1018.2 hPa 0.0 Km/h WNW 0.0 mm  19.1 °C 19.3 °C
Rosolina (RO) 15/08/18 00.35 22.1 °C 92 % 20.7 °C 1013.8 hPa 14.5 Km/h ENE 0.1 mm  21.7 °C 22.1 °C
S. Giovanni Ilarione2 (VR) 15/08/18 00.40 20.2 °C 83 % 17.2 °C 1013.4 hPa 3.2 Km/h WNW 0.0 mm  20.0 °C 20.3 °C
S. Giovanni Lupatoto (VR) 15/08/18 00.40 20.2 °C 90 % 18.5 °C 1014.2 hPa 0.0 Km/h --- 0.0 mm  20.2 °C 20.2 °C
S. Lorenzo di Vittorio Veneto (TV) 15/08/18 00.45 20.2 °C 81 % 16.8 °C 1014.4 hPa 9.7 Km/h N 0.0 mm  19.0 °C 20.2 °C
S. Maria di Zevio Loc. 3 Ponti (VR) 15/08/18 00.48 20.7 °C 83 % 17.8 °C 1015.7 hPa 1.0 Km/h SE 0.0 mm  19.7 °C 20.6 °C
S. Maria Maddalena (RO) 15/08/18 00.45 19.5 °C 92 % 18.2 °C 1013.2 hPa 0.0 Km/h NW 0.0 mm  19.5 °C 19.6 °C
S. Martino Lupari (PD) 15/08/18 00.40 20.0 °C 89 % 18.1 °C 599.5 hPa 0.0 Km/h --- 0.0 mm  19.9 °C 20.1 °C
Salcedo (VI) 15/08/18 00.49 18.3 °C 79 % 14.6 °C 1015.3 hPa 8.0 Km/h NNE 0.0 mm  17.9 °C 18.3 °C
San Nazario (VI) 15/08/18 00.32 19.4 °C 91 % 17.9 °C 1013.7 hPa 9.7 Km/h NE 0.0 mm  19.2 °C 19.4 °C
San Pietro di Rosà (VI) 15/08/18 00.49 20.2 °C 86 % 17.8 °C 1018.0 hPa 0.0 Km/h NNW 0.0 mm  20.0 °C 20.2 °C
San Pietro in Cariano (VR) 15/08/18 00.39 20.0 °C 87 % 17.8 °C 1015.1 hPa 0.0 Km/h NW 0.0 mm  19.6 °C 20.0 °C
Santa Maria di Negrar (VR) 15/08/18 00.39 19.9 °C 83 % 16.9 °C 1015.5 hPa 1.1 Km/h W 0.0 mm  19.9 °C 21.0 °C
Sarcedo (VI) 15/08/18 00.48 19.9 °C 86 % 17.5 °C 1013.2 hPa 1.4 Km/h NE 0.0 mm  19.6 °C 19.9 °C
Schio (VI) 15/08/18 00.25 20.0 °C 83 % 17.0 °C 1015.2 hPa 6.4 Km/h NW 0.0 mm  19.8 °C 20.0 °C
Schio Monte Magré (VI) 13/08/18 20.45 20.4 °C 92 % 19.1 °C 0.0 hPa 8.0 Km/h E 21.6 mm  19.2 °C 28.0 °C
Soave Borgo Bassano (VR) 15/08/18 00.45 21.9 °C 76 % 17.5 °C 1014.0 hPa 3.0 Km/h NE 0.0 mm  21.3 °C 21.9 °C
Sona Loc. La Colombara (VR) 15/08/18 00.00 19.8 °C 87 % 17.2 °C 1010.6 hPa 3.0 Km/h E 0.0 mm  19.8 °C 19.8 °C
Tombolo (PD) 15/08/18 00.49 20.7 °C 84 % 17.9 °C 1014.3 hPa 0.6 Km/h NNW 0.0 mm  20.4 °C 20.7 °C
Tregnago Loc. Centro (VR) 15/08/18 00.45 18.5 °C 81 % 15.2 °C 1008.4 hPa 3.2 Km/h N 0.0 mm  18.0 °C 18.5 °C
Treviso (TV) 15/08/18 00.49 18.1 °C 98 % 17.8 °C 1009.9 hPa 1.0 Km/h E 0.0 mm  17.9 °C 18.1 °C
Val Lastaro (VI) 15/08/18 00.44 13.8 °C 94 % 12.8 °C 1014.7 hPa 0.0 Km/h WNW 0.0 mm  13.8 °C 14.2 °C
Valdagno (VI) 15/08/18 00.49 18.5 °C 86 % 16.1 °C 994.3 hPa 0.0 Km/h N 0.0 mm  18.5 °C 18.7 °C
Valdobbiadene San Pietro di Barbozza (TV) 15/08/18 00.45 19.4 °C 78 % 15.5 °C 1013.1 hPa 8.0 Km/h NNW 0.0 mm  19.3 °C 19.6 °C
Valli del Pasubio loc. Gisbenti (VI) 15/08/18 00.48 16.4 °C 98 % 16.1 °C 972.0 hPa 0.0 Km/h --- 0.0 mm  16.4 °C 16.7 °C
Vazzo Roveré Veronese (VR) 15/08/18 00.49 16.2 °C 74 % 11.5 °C 1011.9 hPa 4.8 Km/h NE 0.0 mm  15.7 °C 16.2 °C
Verona Bgo Venezia (iz3sly) (VR) 15/08/18 00.40 20.8 °C 81 % 17.5 °C 1013.1 hPa 0.0 Km/h S 0.0 mm  20.8 °C 21.3 °C
Verona Cadidavid2 (VR) 15/08/18 00.35 19.3 °C 81 % 16.0 °C 1012.0 hPa 0.0 Km/h SW 0.3 mm  19.3 °C 19.7 °C
Vicenza Moracchino (VI) 15/08/18 00.50 19.8 °C 88 % 17.8 °C 1013.4 hPa 0.0 Km/h NW 0.0 mm  19.6 °C 19.8 °C
Vicenza Pecori Giraldi (VI) 15/08/18 00.35 20.8 °C 100 % 20.8 °C 1015.7 hPa 0.0 Km/h NW 0.0 mm  20.3 °C 20.8 °C
Vicenza S. Lazzaro (VI) 15/08/18 00.50 20.3 °C 87 % 18.3 °C 1013.3 hPa 0.0 Km/h NNW 0.0 mm  20.0 °C 20.3 °C
Vicenza San Gaetano (VI) 14/08/18 23.17 20.1 °C 92 % 18.8 °C 1014.4 hPa 0.0 Km/h WNW 0.2 mm  19.8 °C 26.9 °C
Vigardolo (VI) 15/08/18 00.39 20.4 °C 84 % 17.6 °C 1013.8 hPa 2.6 Km/h NE 0.0 mm  20.3 °C 20.4 °C
Vigasio (VR) 14/08/18 20.50 22.2 °C 89 % 20.3 °C 1010.6 hPa 1.6 Km/h NNW 2.8 mm  21.2 °C 24.5 °C
Villabartolomea (VR) 15/08/18 00.30 19.3 °C 90 % 17.8 °C 1013.1 hPa 1.6 Km/h NE 0.0 mm  19.2 °C 19.3 °C
Vittorio Veneto Parco Fenderl (TV) 15/08/18 00.20 20.6 °C 82 % 17.4 °C 1014.8 hPa 11.3 Km/h NNW 0.0 mm  20.4 °C 20.6 °C
Volpago del Montello (TV) 15/08/18 00.30 19.3 °C 87 % 17.1 °C 1014.0 hPa 0.0 Km/h --- 0.0 mm  19.2 °C 19.5 °C
 
 
 
(*) = Precipitazioni nelle ultime 24h.
Dati non aggiornati nell'ultima ora.
   
In collaborazione con:
 
Top! Top!